createdAt,value
2017-03-16T00:00:27.841Z,6.38
2017-03-16T00:01:08.374Z,6.4
2017-03-16T00:01:48.909Z,6.36
2017-03-16T00:02:29.447Z,6.38
2017-03-16T00:03:09.978Z,6.48
2017-03-16T00:03:50.508Z,6.37
2017-03-16T00:04:31.037Z,6.43
2017-03-16T00:05:11.571Z,6.37
2017-03-16T00:05:52.099Z,6.37
2017-03-16T00:06:32.632Z,6.38
2017-03-16T00:07:13.161Z,6.4
2017-03-16T00:07:53.696Z,6.34
2017-03-16T00:08:34.228Z,6.4
2017-03-16T00:09:14.761Z,6.41
2017-03-16T00:09:55.292Z,6.38
2017-03-16T00:10:35.817Z,6.34
2017-03-16T00:11:16.347Z,6.28
2017-03-16T00:11:56.881Z,6.27
2017-03-16T00:12:37.413Z,6.27
2017-03-16T00:13:17.949Z,6.38
2017-03-16T00:13:58.470Z,6.22
2017-03-16T00:14:39.001Z,6.27
2017-03-16T00:15:19.535Z,6.33
2017-03-16T00:16:00.078Z,6.31
2017-03-16T00:16:40.608Z,6.3
2017-03-16T00:17:21.140Z,6.21
2017-03-16T00:18:01.667Z,6.33
2017-03-16T00:18:42.202Z,6.33
2017-03-16T00:19:22.735Z,6.25
2017-03-16T00:20:03.271Z,6.25
2017-03-16T00:20:43.799Z,6.18
2017-03-16T00:21:24.326Z,6.15
2017-03-16T00:22:04.854Z,6.21
2017-03-16T00:22:45.387Z,6.21
2017-03-16T00:23:25.920Z,6.21
2017-03-16T00:24:06.452Z,6.27
2017-03-16T00:24:46.988Z,6.19
2017-03-16T00:25:27.517Z,6.19
2017-03-16T00:26:08.047Z,6.18
2017-03-16T00:26:48.584Z,6.25
2017-03-16T00:27:29.112Z,6.14
2017-03-16T00:28:09.646Z,6.22
2017-03-16T00:28:50.179Z,6.22
2017-03-16T00:29:30.709Z,6.19
2017-03-16T00:30:11.239Z,6.18
2017-03-16T00:30:51.770Z,6.14
2017-03-16T00:31:32.301Z,6.15
2017-03-16T00:32:12.837Z,6.06
2017-03-16T00:32:53.412Z,6.11
2017-03-16T00:33:33.942Z,6.08
2017-03-16T00:34:14.470Z,6.06
2017-03-16T00:34:55.000Z,6
2017-03-16T00:35:35.519Z,6.03
2017-03-16T00:36:16.049Z,6
2017-03-16T00:36:56.576Z,6.04
2017-03-16T00:37:37.103Z,6.03
2017-03-16T00:38:17.642Z,6
2017-03-16T00:38:58.175Z,5.97
2017-03-16T00:39:38.705Z,5.99
2017-03-16T00:40:19.238Z,5.93
2017-03-16T00:40:59.768Z,6
2017-03-16T00:41:40.294Z,5.94
2017-03-16T00:42:20.823Z,5.93
2017-03-16T00:43:01.358Z,5.97
2017-03-16T00:43:41.883Z,5.89
2017-03-16T00:44:22.419Z,5.9
2017-03-16T00:45:02.948Z,5.94
2017-03-16T00:45:43.479Z,5.91
2017-03-16T00:46:24.007Z,5.86
2017-03-16T00:47:04.540Z,5.93
2017-03-16T00:47:45.071Z,5.91
2017-03-16T00:48:25.610Z,5.85
2017-03-16T00:49:06.150Z,5.85
2017-03-16T00:49:46.680Z,5.81
2017-03-16T00:50:27.213Z,5.85
2017-03-16T00:51:07.744Z,5.89
2017-03-16T00:51:48.274Z,5.83
2017-03-16T00:52:28.809Z,5.76
2017-03-16T00:53:09.336Z,5.79
2017-03-16T00:53:49.861Z,5.79
2017-03-16T00:54:30.390Z,5.76
2017-03-16T00:55:10.929Z,5.79
2017-03-16T00:55:51.464Z,5.67
2017-03-16T00:56:32.004Z,5.76
2017-03-16T00:57:12.536Z,5.81
2017-03-16T00:57:53.066Z,5.71
2017-03-16T00:58:33.597Z,5.74
2017-03-16T00:59:14.128Z,5.67
2017-03-16T00:59:54.664Z,5.71
2017-03-16T01:00:35.188Z,5.67
2017-03-16T01:01:15.721Z,5.71
2017-03-16T01:01:56.250Z,5.76
2017-03-16T01:02:36.811Z,5.67
2017-03-16T01:03:17.313Z,5.65
2017-03-16T01:03:57.844Z,5.75
2017-03-16T01:04:38.369Z,5.67
2017-03-16T01:05:18.896Z,5.68
2017-03-16T01:05:59.432Z,5.67
2017-03-16T01:06:39.967Z,5.67
2017-03-16T01:07:20.495Z,5.61
2017-03-16T01:08:01.029Z,5.64
2017-03-16T01:08:41.557Z,5.71
2017-03-16T01:09:22.092Z,5.68
2017-03-16T01:10:02.620Z,5.72
2017-03-16T01:10:43.149Z,5.67
2017-03-16T01:11:23.675Z,5.61
2017-03-16T01:12:04.206Z,5.68
2017-03-16T01:12:44.741Z,5.58
2017-03-16T01:13:25.266Z,5.63
2017-03-16T01:14:05.795Z,5.67
2017-03-16T01:14:46.326Z,5.63
2017-03-16T01:15:26.851Z,5.63
2017-03-16T01:16:07.378Z,5.75
2017-03-16T01:16:47.909Z,5.65
2017-03-16T01:17:28.437Z,5.63
2017-03-16T01:18:08.962Z,5.65
2017-03-16T01:18:49.493Z,5.6
2017-03-16T01:19:30.021Z,5.6
2017-03-16T01:20:10.550Z,5.63
2017-03-16T01:20:51.082Z,5.56
2017-03-16T01:21:31.612Z,5.49
2017-03-16T01:22:12.140Z,5.53
2017-03-16T01:22:52.677Z,5.53
2017-03-16T01:23:33.203Z,5.48
2017-03-16T01:24:13.730Z,5.51
2017-03-16T01:24:54.290Z,5.56
2017-03-16T01:25:34.822Z,5.49
2017-03-16T01:26:15.352Z,5.48
2017-03-16T01:26:55.885Z,5.57
2017-03-16T01:27:36.422Z,5.53
2017-03-16T01:28:16.954Z,5.46
2017-03-16T01:28:57.486Z,5.58
2017-03-16T01:29:38.013Z,5.58
2017-03-16T01:30:18.557Z,5.56
2017-03-16T01:30:59.087Z,5.45
2017-03-16T01:31:39.626Z,5.45
2017-03-16T01:32:20.153Z,5.45
2017-03-16T01:33:00.683Z,5.58
2017-03-16T01:33:41.215Z,5.48
2017-03-16T01:34:21.756Z,5.51
2017-03-16T01:35:02.279Z,5.57
2017-03-16T01:35:42.809Z,5.45
2017-03-16T01:36:23.338Z,5.51
2017-03-16T01:37:03.872Z,5.49
2017-03-16T01:37:44.401Z,5.53
2017-03-16T01:38:24.935Z,5.42
2017-03-16T01:39:05.461Z,5.51
2017-03-16T01:39:45.997Z,5.48
2017-03-16T01:40:26.525Z,5.49
2017-03-16T01:41:07.054Z,5.38
2017-03-16T01:41:47.584Z,5.35
2017-03-16T01:42:28.111Z,5.39
2017-03-16T01:43:08.643Z,5.35
2017-03-16T01:43:49.171Z,5.33
2017-03-16T01:44:29.695Z,5.36
2017-03-16T01:45:10.232Z,5.36
2017-03-16T01:45:50.762Z,5.33
2017-03-16T01:46:31.297Z,5.35
2017-03-16T01:47:11.827Z,5.39
2017-03-16T01:47:52.357Z,5.39
2017-03-16T01:48:32.886Z,5.35
2017-03-16T01:49:13.418Z,5.38
2017-03-16T01:49:53.952Z,5.25
2017-03-16T01:50:34.480Z,5.27
2017-03-16T01:51:15.009Z,5.22
2017-03-16T01:51:55.541Z,5.35
2017-03-16T01:52:36.074Z,5.25
2017-03-16T01:53:16.607Z,5.35
2017-03-16T01:53:57.133Z,5.18
2017-03-16T01:54:37.662Z,5.18
2017-03-16T01:55:18.196Z,5.15
2017-03-16T01:55:58.727Z,5.27
2017-03-16T01:56:39.252Z,5.22
2017-03-16T01:57:19.779Z,5.21
2017-03-16T01:58:00.313Z,5.22
2017-03-16T01:58:40.844Z,5.21
2017-03-16T01:59:21.374Z,5.27
2017-03-16T02:00:01.902Z,5.17
2017-03-16T02:00:42.426Z,5.2
2017-03-16T02:01:22.955Z,5.21
2017-03-16T02:02:03.493Z,5.22
2017-03-16T02:02:44.020Z,5.22
2017-03-16T02:03:24.550Z,5.2
2017-03-16T02:04:05.082Z,5.2
2017-03-16T02:04:45.616Z,5.18
2017-03-16T02:05:26.148Z,5.15
2017-03-16T02:06:06.676Z,5.18
2017-03-16T02:06:47.208Z,5.17
2017-03-16T02:07:27.737Z,5.31
2017-03-16T02:08:08.268Z,5.31
2017-03-16T02:08:48.799Z,5.25
2017-03-16T02:09:29.333Z,5.25
2017-03-16T02:10:09.866Z,5.33
2017-03-16T02:10:50.392Z,5.21
2017-03-16T02:11:30.923Z,5.38
2017-03-16T02:12:11.470Z,5.39
2017-03-16T02:12:52.007Z,5.28
2017-03-16T02:13:32.530Z,5.38
2017-03-16T02:14:13.060Z,5.3
2017-03-16T02:14:53.587Z,5.31
2017-03-16T02:15:34.124Z,5.28
2017-03-16T02:16:14.651Z,5.36
2017-03-16T02:16:55.183Z,5.35
2017-03-16T02:17:35.718Z,5.31
2017-03-16T02:18:16.247Z,5.33
2017-03-16T02:18:56.778Z,5.38
2017-03-16T02:19:37.313Z,5.4
2017-03-16T02:20:17.845Z,5.31
2017-03-16T02:20:58.382Z,5.33
2017-03-16T02:21:38.914Z,5.33
2017-03-16T02:22:19.440Z,5.36
2017-03-16T02:22:59.983Z,5.36
2017-03-16T02:23:40.505Z,5.39
2017-03-16T02:24:21.036Z,5.38
2017-03-16T02:25:01.557Z,5.4
2017-03-16T02:25:42.088Z,5.4
2017-03-16T02:26:22.621Z,5.49
2017-03-16T02:27:03.157Z,5.48
2017-03-16T02:27:43.687Z,5.43
2017-03-16T02:28:24.224Z,5.43
2017-03-16T02:29:04.754Z,5.42
2017-03-16T02:29:45.284Z,5.46
2017-03-16T02:30:25.836Z,5.45
2017-03-16T02:31:06.386Z,5.48
2017-03-16T02:31:46.912Z,5.48
2017-03-16T02:32:27.444Z,5.53
2017-03-16T02:33:07.973Z,5.51
2017-03-16T02:33:48.500Z,5.49
2017-03-16T02:34:29.038Z,5.48
2017-03-16T02:35:09.567Z,5.51
2017-03-16T02:35:50.099Z,5.48
2017-03-16T02:36:30.627Z,5.46
2017-03-16T02:37:11.154Z,5.49
2017-03-16T02:37:51.689Z,5.46
2017-03-16T02:38:32.219Z,5.43
2017-03-16T02:39:12.750Z,5.43
2017-03-16T02:39:53.282Z,5.4
2017-03-16T02:40:33.810Z,5.39
2017-03-16T02:41:14.355Z,5.35
2017-03-16T02:41:54.901Z,5.33
2017-03-16T02:42:35.418Z,5.33
2017-03-16T02:43:15.950Z,5.31
2017-03-16T02:43:56.488Z,5.38
2017-03-16T02:44:37.012Z,5.38
2017-03-16T02:45:17.547Z,5.38
2017-03-16T02:45:58.078Z,5.33
2017-03-16T02:46:38.613Z,5.25
2017-03-16T02:47:19.144Z,5.33
2017-03-16T02:47:59.673Z,5.22
2017-03-16T02:48:40.205Z,5.2
2017-03-16T02:49:20.730Z,5.15
2017-03-16T02:50:01.260Z,5.21
2017-03-16T02:50:41.800Z,5.22
2017-03-16T02:51:22.335Z,5.18
2017-03-16T02:52:02.867Z,5.15
2017-03-16T02:52:43.403Z,5.17
2017-03-16T02:53:23.969Z,5.13
2017-03-16T02:54:04.505Z,5.2
2017-03-16T02:54:45.035Z,5.13
2017-03-16T02:55:25.579Z,5.1
2017-03-16T02:56:06.115Z,5.06
2017-03-16T02:56:46.630Z,5.06
2017-03-16T02:57:27.171Z,5.12
2017-03-16T02:58:07.702Z,5.07
2017-03-16T02:58:48.236Z,5.09
2017-03-16T02:59:28.768Z,5.06
2017-03-16T03:00:09.299Z,5.09
2017-03-16T03:00:49.826Z,5.12
2017-03-16T03:01:30.351Z,5.1
2017-03-16T03:02:10.882Z,5.09
2017-03-16T03:02:51.414Z,5.06
2017-03-16T03:03:31.948Z,5.07
2017-03-16T03:04:12.482Z,5.12
2017-03-16T03:04:53.011Z,5.07
2017-03-16T03:05:33.545Z,5.12
2017-03-16T03:06:14.084Z,5.1
2017-03-16T03:06:54.616Z,5.12
2017-03-16T03:07:35.154Z,5.1
2017-03-16T03:08:15.687Z,5.13
2017-03-16T03:08:56.220Z,5.15
2017-03-16T03:09:36.750Z,5.04
2017-03-16T03:10:17.286Z,5.15
2017-03-16T03:10:57.817Z,5.04
2017-03-16T03:11:38.347Z,5.04
2017-03-16T03:12:18.865Z,5.12
2017-03-16T03:12:59.401Z,5.13
2017-03-16T03:13:39.942Z,5.21
2017-03-16T03:14:20.473Z,5.18
2017-03-16T03:15:00.999Z,5.17
2017-03-16T03:15:41.527Z,5.13
2017-03-16T03:16:22.052Z,5.15
2017-03-16T03:17:02.591Z,5.2
2017-03-16T03:17:43.119Z,5.17
2017-03-16T03:18:23.660Z,5.13
2017-03-16T03:19:04.236Z,5.12
2017-03-16T03:19:44.770Z,5.18
2017-03-16T03:20:25.292Z,5.13
2017-03-16T03:21:05.826Z,5.17
2017-03-16T03:21:46.360Z,5.21
2017-03-16T03:22:26.895Z,5.09
2017-03-16T03:23:07.428Z,5.21
2017-03-16T03:23:47.965Z,5.15
2017-03-16T03:24:28.490Z,5.15
2017-03-16T03:25:09.022Z,5.13
2017-03-16T03:25:49.559Z,5.06
2017-03-16T03:26:30.107Z,5.13
2017-03-16T03:27:10.637Z,5.15
2017-03-16T03:27:51.178Z,5.17
2017-03-16T03:28:31.711Z,5.1
2017-03-16T03:29:12.251Z,5.1
2017-03-16T03:29:52.782Z,5.18
2017-03-16T03:30:33.324Z,5.17
2017-03-16T03:31:13.853Z,5.1
2017-03-16T03:31:54.383Z,5.17
2017-03-16T03:32:34.917Z,5.15
2017-03-16T03:33:15.443Z,5.1
2017-03-16T03:33:55.981Z,5.04
2017-03-16T03:34:36.515Z,5.07
2017-03-16T03:35:17.053Z,5.09
2017-03-16T03:35:57.585Z,5.1
2017-03-16T03:36:38.115Z,5.07
2017-03-16T03:37:18.643Z,5.1
2017-03-16T03:37:59.172Z,5.12
2017-03-16T03:38:39.694Z,5.07
2017-03-16T03:39:20.237Z,4.92
2017-03-16T03:40:00.771Z,5.1
2017-03-16T03:40:41.302Z,5.09
2017-03-16T03:41:21.838Z,5.07
2017-03-16T03:42:02.363Z,5.03
2017-03-16T03:42:42.896Z,5.04
2017-03-16T03:43:23.410Z,5
2017-03-16T03:44:03.947Z,5.09
2017-03-16T03:44:44.487Z,5.04
2017-03-16T03:45:25.014Z,5.04
2017-03-16T03:46:05.545Z,5.04
2017-03-16T03:46:46.080Z,5.04
2017-03-16T03:47:26.640Z,5.07
2017-03-16T03:48:07.172Z,5.1
2017-03-16T03:48:47.696Z,5.07
2017-03-16T03:49:28.228Z,5.1
2017-03-16T03:50:08.763Z,5.09
2017-03-16T03:50:49.294Z,5.06
2017-03-16T03:51:29.827Z,5.12
2017-03-16T03:52:10.359Z,5.09
2017-03-16T03:52:50.888Z,5.04
2017-03-16T03:53:31.495Z,5.09
2017-03-16T03:54:12.028Z,5.09
2017-03-16T03:54:52.556Z,5.09
2017-03-16T03:55:33.092Z,5.1
2017-03-16T03:56:13.618Z,5
2017-03-16T03:56:54.154Z,5.09
2017-03-16T03:57:34.686Z,5.1
2017-03-16T03:58:15.215Z,5.1
2017-03-16T03:58:55.748Z,5.07
2017-03-16T03:59:36.278Z,5.12
2017-03-16T04:00:16.807Z,5.09
2017-03-16T04:00:57.338Z,5.07
2017-03-16T04:01:37.869Z,5.12
2017-03-16T04:02:18.414Z,5.06
2017-03-16T04:02:58.928Z,5.03
2017-03-16T04:03:39.459Z,5.07
2017-03-16T04:04:19.989Z,5.06
2017-03-16T04:05:00.519Z,5.09
2017-03-16T04:05:41.049Z,5.1
2017-03-16T04:06:21.578Z,5.1
2017-03-16T04:07:02.111Z,5.09
2017-03-16T04:07:42.643Z,5.1
2017-03-16T04:08:23.166Z,5.09
2017-03-16T04:09:03.701Z,5.04
2017-03-16T04:09:44.239Z,5.09
2017-03-16T04:10:24.835Z,4.91
2017-03-16T04:11:05.362Z,5.02
2017-03-16T04:11:45.893Z,4.96
2017-03-16T04:12:26.430Z,4.97
2017-03-16T04:13:06.960Z,4.97
2017-03-16T04:13:47.491Z,4.99
2017-03-16T04:14:28.028Z,5.06
2017-03-16T04:15:08.600Z,5.04
2017-03-16T04:15:49.130Z,5
2017-03-16T04:16:29.667Z,4.97
2017-03-16T04:17:10.246Z,4.92
2017-03-16T04:17:50.775Z,4.92
2017-03-16T04:18:31.300Z,5.02
2017-03-16T04:19:11.836Z,5
2017-03-16T04:19:52.367Z,4.94
2017-03-16T04:20:32.896Z,4.89
2017-03-16T04:21:13.432Z,5
2017-03-16T04:21:53.963Z,4.88
2017-03-16T04:22:34.494Z,4.97
2017-03-16T04:23:15.032Z,4.99
2017-03-16T04:23:55.568Z,4.99
2017-03-16T04:24:36.101Z,4.99
2017-03-16T04:25:16.649Z,4.85
2017-03-16T04:25:57.174Z,4.88
2017-03-16T04:26:37.715Z,4.91
2017-03-16T04:27:18.242Z,4.86
2017-03-16T04:27:58.774Z,4.97
2017-03-16T04:28:39.301Z,4.91
2017-03-16T04:29:19.889Z,4.92
2017-03-16T04:30:00.423Z,4.91
2017-03-16T04:30:40.958Z,4.91
2017-03-16T04:31:21.491Z,4.96
2017-03-16T04:32:02.022Z,4.86
2017-03-16T04:32:42.551Z,4.88
2017-03-16T04:33:23.089Z,4.85
2017-03-16T04:34:03.627Z,4.85
2017-03-16T04:34:44.165Z,4.86
2017-03-16T04:35:24.693Z,4.85
2017-03-16T04:36:05.232Z,4.88
2017-03-16T04:36:45.761Z,4.8
2017-03-16T04:37:26.303Z,4.82
2017-03-16T04:38:06.834Z,4.86
2017-03-16T04:38:47.362Z,4.77
2017-03-16T04:39:27.897Z,4.84
2017-03-16T04:40:08.425Z,4.77
2017-03-16T04:40:48.959Z,4.77
2017-03-16T04:41:29.493Z,4.84
2017-03-16T04:42:10.027Z,4.84
2017-03-16T04:42:50.561Z,4.8
2017-03-16T04:43:31.078Z,4.82
2017-03-16T04:44:11.612Z,4.84
2017-03-16T04:44:52.143Z,4.75
2017-03-16T04:45:32.676Z,4.85
2017-03-16T04:46:13.216Z,4.72
2017-03-16T04:46:53.750Z,4.69
2017-03-16T04:47:34.284Z,4.72
2017-03-16T04:48:14.818Z,4.7
2017-03-16T04:48:55.358Z,4.69
2017-03-16T04:49:35.887Z,4.66
2017-03-16T04:50:16.418Z,4.69
2017-03-16T04:50:56.944Z,4.8
2017-03-16T04:51:37.499Z,4.77
2017-03-16T04:52:18.032Z,4.75
2017-03-16T04:52:58.564Z,4.69
2017-03-16T04:53:39.092Z,4.7
2017-03-16T04:54:19.623Z,4.67
2017-03-16T04:55:00.156Z,4.69
2017-03-16T04:55:40.693Z,4.66
2017-03-16T04:56:21.213Z,4.7
2017-03-16T04:57:02.732Z,4.65
2017-03-16T04:57:43.408Z,4.62
2017-03-16T04:58:24.014Z,4.54
2017-03-16T04:59:04.537Z,4.55
2017-03-16T04:59:45.071Z,4.55
2017-03-16T05:00:25.608Z,4.52
2017-03-16T05:01:06.148Z,4.52
2017-03-16T05:01:46.694Z,4.44
2017-03-16T05:02:27.219Z,4.48
2017-03-16T05:03:07.785Z,4.51
2017-03-16T05:03:48.319Z,4.47
2017-03-16T05:04:28.860Z,4.45
2017-03-16T05:05:09.397Z,4.44
2017-03-16T05:05:49.955Z,4.47
2017-03-16T05:06:30.485Z,4.47
2017-03-16T05:07:11.011Z,4.55
2017-03-16T05:07:51.562Z,4.52
2017-03-16T05:08:32.096Z,4.42
2017-03-16T05:09:12.746Z,4.5
2017-03-16T05:09:53.289Z,4.55
2017-03-16T05:10:33.807Z,4.47
2017-03-16T05:11:14.344Z,4.48
2017-03-16T05:11:54.884Z,4.45
2017-03-16T05:12:35.451Z,4.5
2017-03-16T05:13:15.992Z,4.47
2017-03-16T05:13:56.964Z,4.42
2017-03-16T05:14:38.452Z,4.52
2017-03-16T05:15:20.215Z,4.48
2017-03-16T05:16:03.489Z,4.34
2017-03-16T05:16:44.019Z,4.37
2017-03-16T05:17:24.571Z,4.34
2017-03-16T05:18:05.128Z,4.42
2017-03-16T05:18:45.746Z,4.48
2017-03-16T05:19:26.346Z,4.37
2017-03-16T05:20:06.969Z,4.4
2017-03-16T05:20:47.499Z,4.42
2017-03-16T05:21:28.055Z,4.37
2017-03-16T05:22:08.588Z,4.37
2017-03-16T05:22:49.119Z,4.37
2017-03-16T05:23:29.948Z,4.4
2017-03-16T05:24:11.402Z,4.36
2017-03-16T05:24:53.681Z,4.33
2017-03-16T05:25:34.652Z,4.26
2017-03-16T05:26:15.221Z,4.34
2017-03-16T05:26:55.753Z,4.34
2017-03-16T05:27:36.298Z,4.29
2017-03-16T05:28:16.846Z,4.22
2017-03-16T05:28:57.401Z,4.22
2017-03-16T05:29:39.559Z,4.3
2017-03-16T05:30:20.221Z,4.27
2017-03-16T05:31:00.761Z,4.3
2017-03-16T05:31:41.337Z,4.29
2017-03-16T05:32:21.862Z,4.22
2017-03-16T05:33:02.432Z,4.22
2017-03-16T05:33:43.209Z,4.2
2017-03-16T05:34:23.738Z,4.2
2017-03-16T05:35:04.389Z,4.24
2017-03-16T05:35:47.085Z,4.24
2017-03-16T05:36:30.232Z,4.18
2017-03-16T05:37:12.826Z,4.22
2017-03-16T05:37:53.361Z,4.24
2017-03-16T05:38:33.925Z,4.24
2017-03-16T05:39:14.445Z,4.22
2017-03-16T05:39:54.982Z,4.18
2017-03-16T05:40:35.521Z,4.26
2017-03-16T05:41:16.042Z,4.16
2017-03-16T05:41:56.580Z,4.22
2017-03-16T05:42:37.110Z,4.26
2017-03-16T05:43:17.645Z,4.26
2017-03-16T05:43:58.183Z,4.22
2017-03-16T05:44:38.708Z,4.24
2017-03-16T05:45:19.229Z,4.23
2017-03-16T05:45:59.763Z,4.27
2017-03-16T05:46:40.307Z,4.24
2017-03-16T05:47:20.850Z,4.27
2017-03-16T05:48:01.381Z,4.27
2017-03-16T05:48:41.903Z,4.27
2017-03-16T05:49:22.432Z,4.22
2017-03-16T05:50:03.093Z,4.26
2017-03-16T05:50:43.646Z,4.23
2017-03-16T05:51:24.177Z,4.26
2017-03-16T05:52:04.705Z,4.26
2017-03-16T05:52:45.243Z,4.3
2017-03-16T05:53:25.786Z,4.36
2017-03-16T05:54:06.317Z,4.32
2017-03-16T05:54:46.847Z,4.33
2017-03-16T05:55:27.379Z,4.32
2017-03-16T05:56:07.917Z,4.36
2017-03-16T05:56:48.452Z,4.3
2017-03-16T05:57:29.011Z,4.37
2017-03-16T05:58:09.546Z,4.37
2017-03-16T05:58:50.092Z,4.4
2017-03-16T05:59:30.663Z,4.33
2017-03-16T06:00:11.255Z,4.33
2017-03-16T06:00:51.786Z,4.41
2017-03-16T06:01:32.328Z,4.4
2017-03-16T06:02:12.851Z,4.36
2017-03-16T06:02:53.438Z,4.34
2017-03-16T06:03:34.030Z,4.42
2017-03-16T06:04:14.562Z,4.41
2017-03-16T06:04:55.108Z,4.44
2017-03-16T06:05:35.638Z,4.36
2017-03-16T06:06:16.166Z,4.41
2017-03-16T06:06:56.709Z,4.4
2017-03-16T06:07:37.282Z,4.42
2017-03-16T06:08:17.817Z,4.51
2017-03-16T06:08:58.352Z,4.54
2017-03-16T06:09:38.878Z,4.45
2017-03-16T06:10:19.443Z,4.55
2017-03-16T06:10:59.974Z,4.51
2017-03-16T06:11:40.497Z,4.44
2017-03-16T06:12:21.080Z,4.5
2017-03-16T06:13:01.652Z,4.45
2017-03-16T06:13:42.208Z,4.48
2017-03-16T06:14:22.737Z,4.5
2017-03-16T06:15:03.267Z,4.5
2017-03-16T06:15:43.816Z,4.52
2017-03-16T06:16:24.385Z,4.55
2017-03-16T06:17:04.917Z,4.58
2017-03-16T06:17:45.484Z,4.55
2017-03-16T06:18:26.032Z,4.58
2017-03-16T06:19:06.633Z,4.51
2017-03-16T06:19:47.163Z,4.67
2017-03-16T06:20:27.684Z,4.63
2017-03-16T06:21:08.252Z,4.67
2017-03-16T06:21:48.807Z,4.67
2017-03-16T06:22:29.351Z,4.67
2017-03-16T06:23:09.933Z,4.66
2017-03-16T06:23:50.473Z,4.66
2017-03-16T06:24:30.996Z,4.6
2017-03-16T06:25:11.525Z,4.63
2017-03-16T06:25:52.059Z,4.66
2017-03-16T06:26:32.591Z,4.69
2017-03-16T06:27:13.158Z,4.66
2017-03-16T06:27:53.697Z,4.66
2017-03-16T06:28:34.236Z,4.73
2017-03-16T06:29:14.778Z,4.69
2017-03-16T06:29:55.311Z,4.72
2017-03-16T06:30:35.841Z,4.75
2017-03-16T06:31:16.368Z,4.78
2017-03-16T06:31:56.966Z,4.75
2017-03-16T06:32:37.505Z,4.77
2017-03-16T06:33:18.032Z,4.75
2017-03-16T06:33:58.562Z,4.72
2017-03-16T06:34:39.091Z,4.8
2017-03-16T06:35:19.669Z,4.78
2017-03-16T06:36:00.212Z,4.88
2017-03-16T06:36:40.742Z,4.88
2017-03-16T06:37:21.272Z,4.86
2017-03-16T06:38:01.808Z,4.89
2017-03-16T06:38:42.375Z,4.91
2017-03-16T06:39:22.904Z,4.92
2017-03-16T06:40:03.431Z,4.91
2017-03-16T06:40:43.991Z,4.96
2017-03-16T06:41:24.523Z,4.96
2017-03-16T06:42:05.058Z,4.94
2017-03-16T06:42:45.596Z,4.97
2017-03-16T06:43:26.128Z,5
2017-03-16T06:44:06.663Z,5
2017-03-16T06:44:47.236Z,4.94
2017-03-16T06:45:27.766Z,5.09
2017-03-16T06:46:08.296Z,5.04
2017-03-16T06:46:48.838Z,5.1
2017-03-16T06:47:29.373Z,5.06
2017-03-16T06:48:09.930Z,5.17
2017-03-16T06:48:50.593Z,5.21
2017-03-16T06:49:31.267Z,5.13
2017-03-16T06:50:11.811Z,5.13
2017-03-16T06:50:52.362Z,5.17
2017-03-16T06:51:32.893Z,5.12
2017-03-16T06:52:13.471Z,5.18
2017-03-16T06:52:54.071Z,5.18
2017-03-16T06:53:34.599Z,5.24
2017-03-16T06:54:15.126Z,5.18
2017-03-16T06:54:55.682Z,5.21
2017-03-16T06:55:36.215Z,5.27
2017-03-16T06:56:16.810Z,5.27
2017-03-16T06:56:57.338Z,5.31
2017-03-16T06:57:37.880Z,5.25
2017-03-16T06:58:18.415Z,5.31
2017-03-16T06:58:58.955Z,5.25
2017-03-16T06:59:39.494Z,5.38
2017-03-16T07:00:20.029Z,5.31
2017-03-16T07:01:00.567Z,5.31
2017-03-16T07:01:41.098Z,5.33
2017-03-16T07:02:21.629Z,5.33
2017-03-16T07:03:02.159Z,5.35
2017-03-16T07:03:42.683Z,5.38
2017-03-16T07:04:23.216Z,5.38
2017-03-16T07:05:03.766Z,5.42
2017-03-16T07:05:44.292Z,5.39
2017-03-16T07:06:24.823Z,5.42
2017-03-16T07:07:05.392Z,5.48
2017-03-16T07:07:45.910Z,5.51
2017-03-16T07:08:26.436Z,5.54
2017-03-16T07:09:06.976Z,5.48
2017-03-16T07:09:47.511Z,5.43
2017-03-16T07:10:28.047Z,5.53
2017-03-16T07:11:08.596Z,5.51
2017-03-16T07:11:49.162Z,5.57
2017-03-16T07:12:29.697Z,5.61
2017-03-16T07:13:10.237Z,5.6
2017-03-16T07:13:50.787Z,5.64
2017-03-16T07:14:31.359Z,5.61
2017-03-16T07:15:11.885Z,5.71
2017-03-16T07:15:52.447Z,5.75
2017-03-16T07:16:32.982Z,5.58
2017-03-16T07:17:13.555Z,5.63
2017-03-16T07:17:54.094Z,5.71
2017-03-16T07:18:34.628Z,5.68
2017-03-16T07:19:15.169Z,5.64
2017-03-16T07:19:55.738Z,5.74
2017-03-16T07:20:36.309Z,5.75
2017-03-16T07:21:16.837Z,5.76
2017-03-16T07:21:57.374Z,5.79
2017-03-16T07:22:37.909Z,5.81
2017-03-16T07:23:18.439Z,5.78
2017-03-16T07:23:58.959Z,5.79
2017-03-16T07:24:39.495Z,5.86
2017-03-16T07:25:20.030Z,5.82
2017-03-16T07:26:00.572Z,5.93
2017-03-16T07:26:41.155Z,5.82
2017-03-16T07:27:21.668Z,5.96
2017-03-16T07:28:02.228Z,5.94
2017-03-16T07:28:42.800Z,5.99
2017-03-16T07:29:23.333Z,5.94
2017-03-16T07:30:03.880Z,6.04
2017-03-16T07:30:44.438Z,5.96
2017-03-16T07:31:24.969Z,6.04
2017-03-16T07:32:05.503Z,6.01
2017-03-16T07:32:46.042Z,6.09
2017-03-16T07:33:26.569Z,6.06
2017-03-16T07:34:07.160Z,6.15
2017-03-16T07:34:47.693Z,6.18
2017-03-16T07:35:28.268Z,6.21
2017-03-16T07:36:08.796Z,6.15
2017-03-16T07:36:49.325Z,6.27
2017-03-16T07:37:29.855Z,6.19
2017-03-16T07:38:10.433Z,6.21
2017-03-16T07:38:51.035Z,6.18
2017-03-16T07:39:31.555Z,6.3
2017-03-16T07:40:12.115Z,6.25
2017-03-16T07:40:52.680Z,6.3
2017-03-16T07:41:33.218Z,6.28
2017-03-16T07:42:13.747Z,6.28
2017-03-16T07:42:54.280Z,6.34
2017-03-16T07:43:34.869Z,6.43
2017-03-16T07:44:15.457Z,6.4
2017-03-16T07:44:55.992Z,6.38
2017-03-16T07:45:36.523Z,6.43
2017-03-16T07:46:17.064Z,6.56
2017-03-16T07:46:57.662Z,6.51
2017-03-16T07:47:38.236Z,6.55
2017-03-16T07:48:18.773Z,6.58
2017-03-16T07:48:59.309Z,6.61
2017-03-16T07:49:39.852Z,6.61
2017-03-16T07:50:20.373Z,6.56
2017-03-16T07:51:00.909Z,6.61
2017-03-16T07:51:41.453Z,6.73
2017-03-16T07:52:21.981Z,6.81
2017-03-16T07:53:02.515Z,6.79
2017-03-16T07:53:43.056Z,6.81
2017-03-16T07:54:23.625Z,6.77
2017-03-16T07:55:04.168Z,6.79
2017-03-16T07:55:44.836Z,6.97
2017-03-16T07:56:25.366Z,6.97
2017-03-16T07:57:05.955Z,6.97
2017-03-16T07:57:46.490Z,6.95
2017-03-16T07:58:27.048Z,6.97
2017-03-16T07:59:07.620Z,6.98
2017-03-16T07:59:48.149Z,7.09
2017-03-16T08:00:28.678Z,7.09
2017-03-16T08:01:09.211Z,7.03
2017-03-16T08:01:49.751Z,7.12
2017-03-16T08:02:30.287Z,7.23
2017-03-16T08:03:10.811Z,7.17
2017-03-16T08:03:51.383Z,7.15
2017-03-16T08:04:31.953Z,7.27
2017-03-16T08:05:12.524Z,7.1
2017-03-16T08:05:53.105Z,7.17
2017-03-16T08:06:33.643Z,7.17
2017-03-16T08:07:14.200Z,7.31
2017-03-16T08:07:54.752Z,7.31
2017-03-16T08:08:35.290Z,7.28
2017-03-16T08:09:15.817Z,7.25
2017-03-16T08:09:56.389Z,7.3
2017-03-16T08:10:36.930Z,7.32
2017-03-16T08:11:17.461Z,7.34
2017-03-16T08:11:57.994Z,7.42
2017-03-16T08:12:38.527Z,7.43
2017-03-16T08:13:19.103Z,7.4
2017-03-16T08:13:59.639Z,7.57
2017-03-16T08:14:40.220Z,7.5
2017-03-16T08:15:20.751Z,7.52
2017-03-16T08:16:01.286Z,7.57
2017-03-16T08:16:41.864Z,7.53
2017-03-16T08:17:23.226Z,7.61
2017-03-16T08:18:03.758Z,7.71
2017-03-16T08:18:44.319Z,7.74
2017-03-16T08:19:24.886Z,7.77
2017-03-16T08:20:05.422Z,7.79
2017-03-16T08:20:45.991Z,7.77
2017-03-16T08:21:26.564Z,7.83
2017-03-16T08:22:07.095Z,7.82
2017-03-16T08:22:47.683Z,7.87
2017-03-16T08:23:28.219Z,7.95
2017-03-16T08:24:08.747Z,7.98
2017-03-16T08:24:49.301Z,7.95
2017-03-16T08:25:29.842Z,7.97
2017-03-16T08:26:10.407Z,8.02
2017-03-16T08:26:50.955Z,8.01
2017-03-16T08:27:31.489Z,8.08
2017-03-16T08:28:12.028Z,8.1
2017-03-16T08:28:52.556Z,8.11
2017-03-16T08:29:33.086Z,8.18
2017-03-16T08:30:13.624Z,8.15
2017-03-16T08:30:54.155Z,8.19
2017-03-16T08:31:34.735Z,8.22
2017-03-16T08:32:15.272Z,8.28
2017-03-16T08:32:55.822Z,8.28
2017-03-16T08:33:36.359Z,8.38
2017-03-16T08:34:16.901Z,8.44
2017-03-16T08:34:57.435Z,8.52
2017-03-16T08:35:37.974Z,8.53
2017-03-16T08:36:18.504Z,8.63
2017-03-16T08:36:59.039Z,8.77
2017-03-16T08:37:39.619Z,8.68
2017-03-16T08:38:20.153Z,8.76
2017-03-16T08:39:00.687Z,8.77
2017-03-16T08:39:41.281Z,8.83
2017-03-16T08:40:21.859Z,8.98
2017-03-16T08:41:02.398Z,8.91
2017-03-16T08:41:42.975Z,9.04
2017-03-16T08:42:23.537Z,9.01
2017-03-16T08:43:04.066Z,9.15
2017-03-16T08:43:44.597Z,9.24
2017-03-16T08:44:25.131Z,9.23
2017-03-16T08:45:05.695Z,9.24
2017-03-16T08:45:46.232Z,9.21
2017-03-16T08:46:26.765Z,9.17
2017-03-16T08:47:07.329Z,9.24
2017-03-16T08:47:47.891Z,9.33
2017-03-16T08:48:28.425Z,9.31
2017-03-16T08:49:08.952Z,9.4
2017-03-16T08:49:49.482Z,9.47
2017-03-16T08:50:30.020Z,9.42
2017-03-16T08:51:10.553Z,9.43
2017-03-16T08:51:51.139Z,9.38
2017-03-16T08:52:31.672Z,9.46
2017-03-16T08:53:12.197Z,9.53
2017-03-16T08:53:52.733Z,9.56
2017-03-16T08:54:33.310Z,9.6
2017-03-16T08:55:13.860Z,9.68
2017-03-16T08:55:54.398Z,9.65
2017-03-16T08:56:34.924Z,9.75
2017-03-16T08:57:15.487Z,9.72
2017-03-16T08:57:56.024Z,9.78
2017-03-16T08:58:36.604Z,9.76
2017-03-16T08:59:17.127Z,9.89
2017-03-16T08:59:57.666Z,9.9
2017-03-16T09:00:38.204Z,10.02
2017-03-16T09:01:18.745Z,10.12
2017-03-16T09:01:59.282Z,10.23